sensor_id;sensor_type;location;lat;lon;timestamp;temperature;humidity
42245;DHT22;27912;51.828;5.688;2023-01-23T00:00:49;2.10;99.90
42245;DHT22;27912;51.828;5.688;2023-01-23T00:03:15;2.10;99.90
42245;DHT22;27912;51.828;5.688;2023-01-23T00:05:40;2.10;99.90
42245;DHT22;27912;51.828;5.688;2023-01-23T00:08:06;2.10;99.90
42245;DHT22;27912;51.828;5.688;2023-01-23T00:10:32;2.10;99.90
42245;DHT22;27912;51.828;5.688;2023-01-23T00:12:57;2.10;99.90
42245;DHT22;27912;51.828;5.688;2023-01-23T00:15:23;2.10;99.90
42245;DHT22;27912;51.828;5.688;2023-01-23T00:17:48;2.10;99.90
42245;DHT22;27912;51.828;5.688;2023-01-23T00:20:14;2.10;99.90
42245;DHT22;27912;51.828;5.688;2023-01-23T00:22:40;2.10;99.90
42245;DHT22;27912;51.828;5.688;2023-01-23T00:25:06;2.10;99.90
42245;DHT22;27912;51.828;5.688;2023-01-23T00:27:32;2.10;99.90
42245;DHT22;27912;51.828;5.688;2023-01-23T00:29:57;2.10;99.90
42245;DHT22;27912;51.828;5.688;2023-01-23T00:32:23;2.10;99.90
42245;DHT22;27912;51.828;5.688;2023-01-23T00:34:49;2.10;99.90
42245;DHT22;27912;51.828;5.688;2023-01-23T00:37:15;2.10;99.90
42245;DHT22;27912;51.828;5.688;2023-01-23T00:39:41;2.10;99.90
42245;DHT22;27912;51.828;5.688;2023-01-23T00:42:07;2.10;99.90
42245;DHT22;27912;51.828;5.688;2023-01-23T00:44:32;2.10;99.90
42245;DHT22;27912;51.828;5.688;2023-01-23T00:46:58;2.00;99.90
42245;DHT22;27912;51.828;5.688;2023-01-23T00:49:25;2.10;99.90
42245;DHT22;27912;51.828;5.688;2023-01-23T00:51:50;2.00;99.90
42245;DHT22;27912;51.828;5.688;2023-01-23T00:54:17;2.00;99.90
42245;DHT22;27912;51.828;5.688;2023-01-23T00:56:45;2.00;99.90
42245;DHT22;27912;51.828;5.688;2023-01-23T00:59:11;2.00;99.90
42245;DHT22;27912;51.828;5.688;2023-01-23T01:01:36;2.00;99.90
42245;DHT22;27912;51.828;5.688;2023-01-23T01:04:02;2.00;99.90
42245;DHT22;27912;51.828;5.688;2023-01-23T01:06:28;2.00;99.90
42245;DHT22;27912;51.828;5.688;2023-01-23T01:08:54;2.10;99.90
42245;DHT22;27912;51.828;5.688;2023-01-23T01:11:20;2.10;99.90
42245;DHT22;27912;51.828;5.688;2023-01-23T01:13:45;2.10;99.90
42245;DHT22;27912;51.828;5.688;2023-01-23T01:16:11;2.10;99.90
42245;DHT22;27912;51.828;5.688;2023-01-23T01:18:37;2.10;99.90
42245;DHT22;27912;51.828;5.688;2023-01-23T01:21:11;2.00;99.90
42245;DHT22;27912;51.828;5.688;2023-01-23T01:23:37;2.10;99.90
42245;DHT22;27912;51.828;5.688;2023-01-23T01:26:04;2.00;99.90
42245;DHT22;27912;51.828;5.688;2023-01-23T01:28:33;2.00;99.90
42245;DHT22;27912;51.828;5.688;2023-01-23T01:31:04;2.00;99.90
42245;DHT22;27912;51.828;5.688;2023-01-23T01:33:30;2.00;99.90
42245;DHT22;27912;51.828;5.688;2023-01-23T01:35:55;2.00;99.90
42245;DHT22;27912;51.828;5.688;2023-01-23T01:38:22;2.00;99.90
42245;DHT22;27912;51.828;5.688;2023-01-23T01:40:47;2.00;99.90
42245;DHT22;27912;51.828;5.688;2023-01-23T01:43:22;2.00;99.90
42245;DHT22;27912;51.828;5.688;2023-01-23T01:46:16;2.10;99.90
42245;DHT22;27912;51.828;5.688;2023-01-23T01:49:06;2.00;99.90
42245;DHT22;27912;51.828;5.688;2023-01-23T01:51:37;2.00;99.90
42245;DHT22;27912;51.828;5.688;2023-01-23T01:54:08;2.00;99.90
42245;DHT22;27912;51.828;5.688;2023-01-23T01:56:40;2.00;99.90
42245;DHT22;27912;51.828;5.688;2023-01-23T01:59:07;2.00;99.90
42245;DHT22;27912;51.828;5.688;2023-01-23T02:01:34;2.00;99.90
42245;DHT22;27912;51.828;5.688;2023-01-23T02:04:00;2.00;99.90
42245;DHT22;27912;51.828;5.688;2023-01-23T02:06:26;2.00;99.90
42245;DHT22;27912;51.828;5.688;2023-01-23T02:09:18;2.00;99.90
42245;DHT22;27912;51.828;5.688;2023-01-23T02:11:45;2.00;99.90
42245;DHT22;27912;51.828;5.688;2023-01-23T02:14:10;2.00;99.90
42245;DHT22;27912;51.828;5.688;2023-01-23T02:16:38;2.00;99.90
42245;DHT22;27912;51.828;5.688;2023-01-23T02:19:17;2.00;99.90
42245;DHT22;27912;51.828;5.688;2023-01-23T02:21:47;2.10;99.90
42245;DHT22;27912;51.828;5.688;2023-01-23T02:24:33;2.00;99.90
42245;DHT22;27912;51.828;5.688;2023-01-23T02:27:01;2.10;99.90
42245;DHT22;27912;51.828;5.688;2023-01-23T02:29:39;2.10;99.90
42245;DHT22;27912;51.828;5.688;2023-01-23T02:32:05;2.10;99.90
42245;DHT22;27912;51.828;5.688;2023-01-23T02:34:31;2.10;99.90
42245;DHT22;27912;51.828;5.688;2023-01-23T02:36:56;2.10;99.90
42245;DHT22;27912;51.828;5.688;2023-01-23T02:39:22;2.10;99.90
42245;DHT22;27912;51.828;5.688;2023-01-23T02:41:49;2.10;99.90
42245;DHT22;27912;51.828;5.688;2023-01-23T02:44:21;2.10;99.90
42245;DHT22;27912;51.828;5.688;2023-01-23T02:46:54;2.10;99.90
42245;DHT22;27912;51.828;5.688;2023-01-23T02:49:20;2.10;99.90
42245;DHT22;27912;51.828;5.688;2023-01-23T02:51:47;2.10;99.90
42245;DHT22;27912;51.828;5.688;2023-01-23T02:54:13;2.20;99.90
42245;DHT22;27912;51.828;5.688;2023-01-23T02:56:39;2.20;99.90
42245;DHT22;27912;51.828;5.688;2023-01-23T02:59:07;2.10;99.90
42245;DHT22;27912;51.828;5.688;2023-01-23T03:01:52;2.20;99.90
42245;DHT22;27912;51.828;5.688;2023-01-23T03:04:17;2.10;99.90
42245;DHT22;27912;51.828;5.688;2023-01-23T03:06:43;2.20;99.90
42245;DHT22;27912;51.828;5.688;2023-01-23T03:09:11;2.20;99.90
42245;DHT22;27912;51.828;5.688;2023-01-23T03:11:39;2.20;99.90
42245;DHT22;27912;51.828;5.688;2023-01-23T03:14:07;2.20;99.90
42245;DHT22;27912;51.828;5.688;2023-01-23T03:16:33;2.20;99.90
42245;DHT22;27912;51.828;5.688;2023-01-23T03:19:02;2.20;99.90
42245;DHT22;27912;51.828;5.688;2023-01-23T03:21:37;2.20;99.90
42245;DHT22;27912;51.828;5.688;2023-01-23T03:24:06;2.20;99.90
42245;DHT22;27912;51.828;5.688;2023-01-23T03:26:32;2.20;99.90
42245;DHT22;27912;51.828;5.688;2023-01-23T03:28:57;2.20;99.90
42245;DHT22;27912;51.828;5.688;2023-01-23T03:31:42;2.20;99.90
42245;DHT22;27912;51.828;5.688;2023-01-23T03:34:08;2.20;99.90
42245;DHT22;27912;51.828;5.688;2023-01-23T03:36:34;2.20;99.90
42245;DHT22;27912;51.828;5.688;2023-01-23T03:39:06;2.20;99.90
42245;DHT22;27912;51.828;5.688;2023-01-23T03:41:51;2.20;99.90
42245;DHT22;27912;51.828;5.688;2023-01-23T03:44:18;2.20;99.90
42245;DHT22;27912;51.828;5.688;2023-01-23T03:46:47;2.20;99.90
42245;DHT22;27912;51.828;5.688;2023-01-23T03:49:14;2.30;99.90
42245;DHT22;27912;51.828;5.688;2023-01-23T03:51:40;2.30;99.90
42245;DHT22;27912;51.828;5.688;2023-01-23T03:54:05;2.30;99.90
42245;DHT22;27912;51.828;5.688;2023-01-23T03:56:31;2.30;99.90
42245;DHT22;27912;51.828;5.688;2023-01-23T03:58:56;2.30;99.90
42245;DHT22;27912;51.828;5.688;2023-01-23T04:01:23;2.30;99.90
42245;DHT22;27912;51.828;5.688;2023-01-23T04:03:49;2.30;99.90
42245;DHT22;27912;51.828;5.688;2023-01-23T04:06:14;2.30;99.90
42245;DHT22;27912;51.828;5.688;2023-01-23T04:08:40;2.30;99.90
42245;DHT22;27912;51.828;5.688;2023-01-23T04:11:07;2.20;99.90
42245;DHT22;27912;51.828;5.688;2023-01-23T04:13:34;2.20;99.90
42245;DHT22;27912;51.828;5.688;2023-01-23T04:16:00;2.20;99.90
42245;DHT22;27912;51.828;5.688;2023-01-23T04:18:26;2.20;99.90
42245;DHT22;27912;51.828;5.688;2023-01-23T04:20:51;2.20;99.90
42245;DHT22;27912;51.828;5.688;2023-01-23T04:23:17;2.20;99.90
42245;DHT22;27912;51.828;5.688;2023-01-23T04:25:43;2.20;99.90
42245;DHT22;27912;51.828;5.688;2023-01-23T04:28:08;2.20;99.90
42245;DHT22;27912;51.828;5.688;2023-01-23T04:30:34;2.20;99.90
42245;DHT22;27912;51.828;5.688;2023-01-23T04:32:59;2.20;99.90
42245;DHT22;27912;51.828;5.688;2023-01-23T04:35:25;2.20;99.90
42245;DHT22;27912;51.828;5.688;2023-01-23T04:37:50;2.20;99.90
42245;DHT22;27912;51.828;5.688;2023-01-23T04:40:16;2.20;99.90
42245;DHT22;27912;51.828;5.688;2023-01-23T04:42:42;2.20;99.90
42245;DHT22;27912;51.828;5.688;2023-01-23T04:45:08;2.20;99.90
42245;DHT22;27912;51.828;5.688;2023-01-23T04:47:34;2.20;99.90
42245;DHT22;27912;51.828;5.688;2023-01-23T04:50:00;2.20;99.90
42245;DHT22;27912;51.828;5.688;2023-01-23T04:52:25;2.30;99.90
42245;DHT22;27912;51.828;5.688;2023-01-23T04:54:51;2.20;99.90
42245;DHT22;27912;51.828;5.688;2023-01-23T04:57:16;2.30;99.90
42245;DHT22;27912;51.828;5.688;2023-01-23T04:59:42;2.30;99.90
42245;DHT22;27912;51.828;5.688;2023-01-23T05:02:07;2.30;99.90
42245;DHT22;27912;51.828;5.688;2023-01-23T05:04:34;2.30;99.90
42245;DHT22;27912;51.828;5.688;2023-01-23T05:06:59;2.30;99.90
42245;DHT22;27912;51.828;5.688;2023-01-23T05:09:25;2.30;99.90
42245;DHT22;27912;51.828;5.688;2023-01-23T05:11:50;2.30;99.90
42245;DHT22;27912;51.828;5.688;2023-01-23T05:14:16;2.30;99.90
42245;DHT22;27912;51.828;5.688;2023-01-23T05:16:41;2.30;99.90
42245;DHT22;27912;51.828;5.688;2023-01-23T05:19:07;2.30;99.90
42245;DHT22;27912;51.828;5.688;2023-01-23T05:21:32;2.30;99.90
42245;DHT22;27912;51.828;5.688;2023-01-23T05:23:58;2.30;99.90
42245;DHT22;27912;51.828;5.688;2023-01-23T05:26:23;2.30;99.90
42245;DHT22;27912;51.828;5.688;2023-01-23T05:28:49;2.30;99.90
42245;DHT22;27912;51.828;5.688;2023-01-23T05:31:15;2.30;99.90
42245;DHT22;27912;51.828;5.688;2023-01-23T05:33:40;2.40;99.90
42245;DHT22;27912;51.828;5.688;2023-01-23T05:36:06;2.40;99.90
42245;DHT22;27912;51.828;5.688;2023-01-23T05:38:31;2.40;99.90
42245;DHT22;27912;51.828;5.688;2023-01-23T05:40:57;2.40;99.90
42245;DHT22;27912;51.828;5.688;2023-01-23T05:43:22;2.40;99.90
42245;DHT22;27912;51.828;5.688;2023-01-23T05:45:48;2.40;99.90
42245;DHT22;27912;51.828;5.688;2023-01-23T05:48:14;2.40;99.90
42245;DHT22;27912;51.828;5.688;2023-01-23T05:50:40;2.40;99.90
42245;DHT22;27912;51.828;5.688;2023-01-23T05:53:05;2.40;99.90
42245;DHT22;27912;51.828;5.688;2023-01-23T05:55:31;2.40;99.90
42245;DHT22;27912;51.828;5.688;2023-01-23T05:57:56;2.40;99.90
42245;DHT22;27912;51.828;5.688;2023-01-23T06:00:22;2.40;99.90
42245;DHT22;27912;51.828;5.688;2023-01-23T06:02:48;2.40;99.90
42245;DHT22;27912;51.828;5.688;2023-01-23T06:05:13;2.40;99.90
42245;DHT22;27912;51.828;5.688;2023-01-23T06:07:39;2.40;99.90
42245;DHT22;27912;51.828;5.688;2023-01-23T06:10:06;2.30;99.90
42245;DHT22;27912;51.828;5.688;2023-01-23T06:12:31;2.40;99.90
42245;DHT22;27912;51.828;5.688;2023-01-23T06:14:57;2.40;99.90
42245;DHT22;27912;51.828;5.688;2023-01-23T06:17:22;2.40;99.90
42245;DHT22;27912;51.828;5.688;2023-01-23T06:19:48;2.40;99.90
42245;DHT22;27912;51.828;5.688;2023-01-23T06:22:13;2.40;99.90
42245;DHT22;27912;51.828;5.688;2023-01-23T06:24:39;2.40;99.90
42245;DHT22;27912;51.828;5.688;2023-01-23T06:27:05;2.40;99.90
42245;DHT22;27912;51.828;5.688;2023-01-23T06:29:36;2.40;99.90
42245;DHT22;27912;51.828;5.688;2023-01-23T06:32:02;2.40;99.90
42245;DHT22;27912;51.828;5.688;2023-01-23T06:34:28;2.30;99.90
42245;DHT22;27912;51.828;5.688;2023-01-23T06:36:54;2.40;99.90
42245;DHT22;27912;51.828;5.688;2023-01-23T06:39:19;2.40;99.90
42245;DHT22;27912;51.828;5.688;2023-01-23T06:41:45;2.40;99.90
42245;DHT22;27912;51.828;5.688;2023-01-23T06:44:11;2.40;99.90
42245;DHT22;27912;51.828;5.688;2023-01-23T06:46:36;2.40;99.90
42245;DHT22;27912;51.828;5.688;2023-01-23T06:49:02;2.40;99.90
42245;DHT22;27912;51.828;5.688;2023-01-23T06:51:28;2.40;99.90
42245;DHT22;27912;51.828;5.688;2023-01-23T06:53:54;2.40;99.90
42245;DHT22;27912;51.828;5.688;2023-01-23T06:56:20;2.40;99.90
42245;DHT22;27912;51.828;5.688;2023-01-23T06:58:46;2.40;99.90
42245;DHT22;27912;51.828;5.688;2023-01-23T07:01:15;2.40;99.90
42245;DHT22;27912;51.828;5.688;2023-01-23T07:03:41;2.40;99.90
42245;DHT22;27912;51.828;5.688;2023-01-23T07:06:09;2.40;99.90
42245;DHT22;27912;51.828;5.688;2023-01-23T07:08:35;2.40;99.90
42245;DHT22;27912;51.828;5.688;2023-01-23T07:11:01;2.50;99.90
42245;DHT22;27912;51.828;5.688;2023-01-23T07:13:27;2.40;99.90
42245;DHT22;27912;51.828;5.688;2023-01-23T07:15:53;2.50;99.90
42245;DHT22;27912;51.828;5.688;2023-01-23T07:18:19;2.40;99.90
42245;DHT22;27912;51.828;5.688;2023-01-23T07:20:45;2.40;99.90
42245;DHT22;27912;51.828;5.688;2023-01-23T07:23:11;2.40;99.90
42245;DHT22;27912;51.828;5.688;2023-01-23T07:25:38;2.40;99.90
42245;DHT22;27912;51.828;5.688;2023-01-23T07:28:03;2.40;99.90
42245;DHT22;27912;51.828;5.688;2023-01-23T07:30:30;2.40;99.90
42245;DHT22;27912;51.828;5.688;2023-01-23T07:32:56;2.50;99.90
42245;DHT22;27912;51.828;5.688;2023-01-23T07:35:23;2.50;99.90
42245;DHT22;27912;51.828;5.688;2023-01-23T07:37:48;2.50;99.90
42245;DHT22;27912;51.828;5.688;2023-01-23T07:40:14;2.50;99.90
42245;DHT22;27912;51.828;5.688;2023-01-23T07:42:40;2.50;99.90
42245;DHT22;27912;51.828;5.688;2023-01-23T07:45:07;2.50;99.90
42245;DHT22;27912;51.828;5.688;2023-01-23T07:47:35;2.50;99.90
42245;DHT22;27912;51.828;5.688;2023-01-23T07:50:00;2.50;99.90
42245;DHT22;27912;51.828;5.688;2023-01-23T07:52:26;2.50;99.90
42245;DHT22;27912;51.828;5.688;2023-01-23T07:54:51;2.60;99.90
42245;DHT22;27912;51.828;5.688;2023-01-23T07:57:17;2.60;99.90
42245;DHT22;27912;51.828;5.688;2023-01-23T07:59:43;2.60;99.90
42245;DHT22;27912;51.828;5.688;2023-01-23T08:02:09;2.60;99.90
42245;DHT22;27912;51.828;5.688;2023-01-23T08:04:35;2.60;99.90
42245;DHT22;27912;51.828;5.688;2023-01-23T08:07:01;2.60;99.90
42245;DHT22;27912;51.828;5.688;2023-01-23T08:09:27;2.60;99.90
42245;DHT22;27912;51.828;5.688;2023-01-23T08:11:52;2.60;99.90
42245;DHT22;27912;51.828;5.688;2023-01-23T08:14:18;2.70;99.90
42245;DHT22;27912;51.828;5.688;2023-01-23T08:16:48;2.70;99.90
42245;DHT22;27912;51.828;5.688;2023-01-23T08:19:13;2.70;99.90
42245;DHT22;27912;51.828;5.688;2023-01-23T08:21:39;2.80;99.90
42245;DHT22;27912;51.828;5.688;2023-01-23T08:24:05;2.80;99.90
42245;DHT22;27912;51.828;5.688;2023-01-23T08:26:31;2.80;99.90
42245;DHT22;27912;51.828;5.688;2023-01-23T08:28:56;2.80;99.90
42245;DHT22;27912;51.828;5.688;2023-01-23T08:31:22;2.80;99.90
42245;DHT22;27912;51.828;5.688;2023-01-23T08:33:48;2.90;99.90
42245;DHT22;27912;51.828;5.688;2023-01-23T08:36:13;2.90;99.90
42245;DHT22;27912;51.828;5.688;2023-01-23T08:38:39;2.90;99.90
42245;DHT22;27912;51.828;5.688;2023-01-23T08:41:04;2.90;99.90
42245;DHT22;27912;51.828;5.688;2023-01-23T08:43:31;3.00;99.90
42245;DHT22;27912;51.828;5.688;2023-01-23T08:45:58;3.00;99.90
42245;DHT22;27912;51.828;5.688;2023-01-23T08:48:25;3.00;99.90
42245;DHT22;27912;51.828;5.688;2023-01-23T08:50:56;3.10;99.90
42245;DHT22;27912;51.828;5.688;2023-01-23T08:53:22;3.10;99.90
42245;DHT22;27912;51.828;5.688;2023-01-23T08:55:48;3.10;99.90
42245;DHT22;27912;51.828;5.688;2023-01-23T08:58:13;3.10;99.90
42245;DHT22;27912;51.828;5.688;2023-01-23T09:00:39;3.20;99.90
42245;DHT22;27912;51.828;5.688;2023-01-23T09:03:05;3.20;99.90
42245;DHT22;27912;51.828;5.688;2023-01-23T09:05:31;3.20;99.90
42245;DHT22;27912;51.828;5.688;2023-01-23T09:07:57;3.30;99.90
42245;DHT22;27912;51.828;5.688;2023-01-23T09:10:24;3.30;99.90
42245;DHT22;27912;51.828;5.688;2023-01-23T09:12:51;3.30;99.90
42245;DHT22;27912;51.828;5.688;2023-01-23T09:15:17;3.40;99.90
42245;DHT22;27912;51.828;5.688;2023-01-23T09:17:42;3.40;99.90
42245;DHT22;27912;51.828;5.688;2023-01-23T09:20:08;3.40;99.90
42245;DHT22;27912;51.828;5.688;2023-01-23T09:22:34;3.50;99.90
42245;DHT22;27912;51.828;5.688;2023-01-23T09:25:00;3.50;99.90
42245;DHT22;27912;51.828;5.688;2023-01-23T09:27:26;3.50;99.90
42245;DHT22;27912;51.828;5.688;2023-01-23T09:29:51;3.50;99.90
42245;DHT22;27912;51.828;5.688;2023-01-23T09:32:17;3.60;99.90
42245;DHT22;27912;51.828;5.688;2023-01-23T09:34:42;3.60;99.90
42245;DHT22;27912;51.828;5.688;2023-01-23T09:37:08;3.60;99.90
42245;DHT22;27912;51.828;5.688;2023-01-23T09:39:34;3.60;99.90
42245;DHT22;27912;51.828;5.688;2023-01-23T09:42:04;3.60;99.90
42245;DHT22;27912;51.828;5.688;2023-01-23T09:45:00;3.70;99.90
42245;DHT22;27912;51.828;5.688;2023-01-23T09:47:35;3.70;99.90
42245;DHT22;27912;51.828;5.688;2023-01-23T09:50:13;3.70;99.90
42245;DHT22;27912;51.828;5.688;2023-01-23T09:52:48;3.70;99.90
42245;DHT22;27912;51.828;5.688;2023-01-23T09:58:36;3.70;99.90
42245;DHT22;27912;51.828;5.688;2023-01-23T10:01:03;3.70;99.90
42245;DHT22;27912;51.828;5.688;2023-01-23T10:03:29;3.70;99.90
42245;DHT22;27912;51.828;5.688;2023-01-23T10:06:11;3.70;99.90
42245;DHT22;27912;51.828;5.688;2023-01-23T10:19:42;3.80;99.90
42245;DHT22;27912;51.828;5.688;2023-01-23T10:24:57;3.90;99.90
42245;DHT22;27912;51.828;5.688;2023-01-23T10:27:35;3.90;99.90
42245;DHT22;27912;51.828;5.688;2023-01-23T10:30:38;3.90;99.90
42245;DHT22;27912;51.828;5.688;2023-01-23T10:33:15;4.00;99.90
42245;DHT22;27912;51.828;5.688;2023-01-23T10:35:50;4.00;99.90
42245;DHT22;27912;51.828;5.688;2023-01-23T10:38:26;4.10;99.90
42245;DHT22;27912;51.828;5.688;2023-01-23T10:40:55;4.10;99.90
42245;DHT22;27912;51.828;5.688;2023-01-23T10:43:40;4.20;99.90
42245;DHT22;27912;51.828;5.688;2023-01-23T10:46:14;4.20;99.90
42245;DHT22;27912;51.828;5.688;2023-01-23T10:48:48;4.20;99.90
42245;DHT22;27912;51.828;5.688;2023-01-23T10:56:27;4.20;99.90
42245;DHT22;27912;51.828;5.688;2023-01-23T10:58:58;4.20;99.90
42245;DHT22;27912;51.828;5.688;2023-01-23T11:01:26;4.20;99.90
42245;DHT22;27912;51.828;5.688;2023-01-23T11:03:52;4.30;99.90
42245;DHT22;27912;51.828;5.688;2023-01-23T11:06:21;4.30;99.90
42245;DHT22;27912;51.828;5.688;2023-01-23T11:08:59;4.30;99.90
42245;DHT22;27912;51.828;5.688;2023-01-23T11:11:30;4.30;99.90
42245;DHT22;27912;51.828;5.688;2023-01-23T11:14:13;4.40;99.90
42245;DHT22;27912;51.828;5.688;2023-01-23T11:16:41;4.50;99.90
42245;DHT22;27912;51.828;5.688;2023-01-23T11:19:16;4.60;99.90
42245;DHT22;27912;51.828;5.688;2023-01-23T11:21:55;4.70;99.90
42245;DHT22;27912;51.828;5.688;2023-01-23T11:24:29;4.70;99.90
42245;DHT22;27912;51.828;5.688;2023-01-23T11:27:00;4.70;99.90
42245;DHT22;27912;51.828;5.688;2023-01-23T11:29:28;4.70;99.90
42245;DHT22;27912;51.828;5.688;2023-01-23T11:32:08;4.70;99.90
42245;DHT22;27912;51.828;5.688;2023-01-23T11:34:50;4.80;99.90
42245;DHT22;27912;51.828;5.688;2023-01-23T11:37:26;4.80;99.90
42245;DHT22;27912;51.828;5.688;2023-01-23T11:40:12;4.80;99.90
42245;DHT22;27912;51.828;5.688;2023-01-23T11:42:41;4.80;99.90
42245;DHT22;27912;51.828;5.688;2023-01-23T11:48:06;4.80;99.90
42245;DHT22;27912;51.828;5.688;2023-01-23T11:50:38;4.80;99.90
42245;DHT22;27912;51.828;5.688;2023-01-23T11:53:19;4.70;99.90
42245;DHT22;27912;51.828;5.688;2023-01-23T12:09:19;4.60;99.90
42245;DHT22;27912;51.828;5.688;2023-01-23T12:17:28;4.70;99.90
42245;DHT22;27912;51.828;5.688;2023-01-23T12:25:57;4.70;99.90
42245;DHT22;27912;51.828;5.688;2023-01-23T12:28:56;4.70;99.90
42245;DHT22;27912;51.828;5.688;2023-01-23T12:31:46;4.70;99.90
42245;DHT22;27912;51.828;5.688;2023-01-23T12:34:47;4.70;99.90
42245;DHT22;27912;51.828;5.688;2023-01-23T12:37:32;4.70;99.90
42245;DHT22;27912;51.828;5.688;2023-01-23T12:40:10;4.70;99.90
42245;DHT22;27912;51.828;5.688;2023-01-23T12:42:53;4.70;99.90
42245;DHT22;27912;51.828;5.688;2023-01-23T12:45:26;4.70;99.90
42245;DHT22;27912;51.828;5.688;2023-01-23T12:50:56;4.70;99.90
42245;DHT22;27912;51.828;5.688;2023-01-23T12:53:21;4.70;99.90
42245;DHT22;27912;51.828;5.688;2023-01-23T12:58:30;4.80;99.90
42245;DHT22;27912;51.828;5.688;2023-01-23T13:01:36;4.80;99.90
42245;DHT22;27912;51.828;5.688;2023-01-23T13:12:28;4.90;99.90
42245;DHT22;27912;51.828;5.688;2023-01-23T13:15:33;4.90;99.90
42245;DHT22;27912;51.828;5.688;2023-01-23T13:18:00;5.00;99.90
42245;DHT22;27912;51.828;5.688;2023-01-23T13:20:29;5.00;99.90
42245;DHT22;27912;51.828;5.688;2023-01-23T13:23:31;5.00;99.90
42245;DHT22;27912;51.828;5.688;2023-01-23T13:28:52;5.10;99.90
42245;DHT22;27912;51.828;5.688;2023-01-23T13:31:44;5.10;99.90
42245;DHT22;27912;51.828;5.688;2023-01-23T13:36:51;5.00;99.90
42245;DHT22;27912;51.828;5.688;2023-01-23T13:39:27;5.00;99.90
42245;DHT22;27912;51.828;5.688;2023-01-23T13:50:40;5.00;99.90
42245;DHT22;27912;51.828;5.688;2023-01-23T13:53:23;4.90;99.90
42245;DHT22;27912;51.828;5.688;2023-01-23T13:56:16;4.80;99.90
42245;DHT22;27912;51.828;5.688;2023-01-23T13:59:03;4.80;99.90
42245;DHT22;27912;51.828;5.688;2023-01-23T14:01:33;4.80;99.90
42245;DHT22;27912;51.828;5.688;2023-01-23T14:04:25;4.80;99.90
42245;DHT22;27912;51.828;5.688;2023-01-23T14:07:24;4.80;99.90
42245;DHT22;27912;51.828;5.688;2023-01-23T14:10:27;4.70;99.90
42245;DHT22;27912;51.828;5.688;2023-01-23T14:13:04;4.70;99.90
42245;DHT22;27912;51.828;5.688;2023-01-23T14:15:31;4.60;99.90
42245;DHT22;27912;51.828;5.688;2023-01-23T14:18:42;4.70;99.90
42245;DHT22;27912;51.828;5.688;2023-01-23T14:21:26;4.60;99.90
42245;DHT22;27912;51.828;5.688;2023-01-23T14:23:54;4.60;99.90
42245;DHT22;27912;51.828;5.688;2023-01-23T14:26:27;4.60;99.90
42245;DHT22;27912;51.828;5.688;2023-01-23T14:28:55;4.60;99.90
42245;DHT22;27912;51.828;5.688;2023-01-23T14:31:24;4.60;99.90
42245;DHT22;27912;51.828;5.688;2023-01-23T14:33:49;4.60;99.90
42245;DHT22;27912;51.828;5.688;2023-01-23T14:36:17;4.60;99.90
42245;DHT22;27912;51.828;5.688;2023-01-23T14:38:45;4.60;99.90
42245;DHT22;27912;51.828;5.688;2023-01-23T14:41:11;4.60;99.90
42245;DHT22;27912;51.828;5.688;2023-01-23T14:43:39;4.60;99.90
42245;DHT22;27912;51.828;5.688;2023-01-23T14:46:14;4.60;99.90
42245;DHT22;27912;51.828;5.688;2023-01-23T14:48:41;4.60;99.90
42245;DHT22;27912;51.828;5.688;2023-01-23T14:51:19;4.70;99.90
42245;DHT22;27912;51.828;5.688;2023-01-23T14:54:14;4.70;99.90
42245;DHT22;27912;51.828;5.688;2023-01-23T14:56:41;4.80;99.90
42245;DHT22;27912;51.828;5.688;2023-01-23T14:59:35;4.90;99.90
42245;DHT22;27912;51.828;5.688;2023-01-23T15:02:01;5.10;99.90
42245;DHT22;27912;51.828;5.688;2023-01-23T15:04:28;5.10;99.90
42245;DHT22;27912;51.828;5.688;2023-01-23T15:06:57;5.20;99.90
42245;DHT22;27912;51.828;5.688;2023-01-23T15:09:30;5.20;99.90
42245;DHT22;27912;51.828;5.688;2023-01-23T15:12:04;5.30;99.90
42245;DHT22;27912;51.828;5.688;2023-01-23T15:14:36;5.20;99.90
42245;DHT22;27912;51.828;5.688;2023-01-23T15:17:05;5.10;99.90
42245;DHT22;27912;51.828;5.688;2023-01-23T15:19:34;5.00;99.90
42245;DHT22;27912;51.828;5.688;2023-01-23T15:22:24;4.90;99.90
42245;DHT22;27912;51.828;5.688;2023-01-23T15:24:50;4.80;99.90
42245;DHT22;27912;51.828;5.688;2023-01-23T15:27:34;4.80;99.90
42245;DHT22;27912;51.828;5.688;2023-01-23T15:33:01;4.70;99.90
42245;DHT22;27912;51.828;5.688;2023-01-23T15:35:33;4.60;99.90
42245;DHT22;27912;51.828;5.688;2023-01-23T15:37:59;4.60;99.90
42245;DHT22;27912;51.828;5.688;2023-01-23T15:40:31;4.60;99.90
42245;DHT22;27912;51.828;5.688;2023-01-23T15:43:09;4.50;99.90
42245;DHT22;27912;51.828;5.688;2023-01-23T15:45:35;4.50;99.90
42245;DHT22;27912;51.828;5.688;2023-01-23T15:48:01;4.50;99.90
42245;DHT22;27912;51.828;5.688;2023-01-23T15:50:30;4.50;99.90
42245;DHT22;27912;51.828;5.688;2023-01-23T15:52:56;4.40;99.90
42245;DHT22;27912;51.828;5.688;2023-01-23T15:55:24;4.50;99.90
42245;DHT22;27912;51.828;5.688;2023-01-23T15:57:51;4.50;99.90
42245;DHT22;27912;51.828;5.688;2023-01-23T16:00:23;4.50;99.90
42245;DHT22;27912;51.828;5.688;2023-01-23T16:02:49;4.40;99.90
42245;DHT22;27912;51.828;5.688;2023-01-23T16:05:23;4.40;99.90
42245;DHT22;27912;51.828;5.688;2023-01-23T16:07:49;4.40;99.90
42245;DHT22;27912;51.828;5.688;2023-01-23T16:10:17;4.40;99.90
42245;DHT22;27912;51.828;5.688;2023-01-23T16:12:43;4.40;99.90
42245;DHT22;27912;51.828;5.688;2023-01-23T16:15:22;4.40;99.90
42245;DHT22;27912;51.828;5.688;2023-01-23T16:17:49;4.30;99.90
42245;DHT22;27912;51.828;5.688;2023-01-23T16:22:41;4.40;99.90
42245;DHT22;27912;51.828;5.688;2023-01-23T16:25:30;4.40;99.90
42245;DHT22;27912;51.828;5.688;2023-01-23T16:27:59;4.30;99.90
42245;DHT22;27912;51.828;5.688;2023-01-23T16:30:25;4.30;99.90
42245;DHT22;27912;51.828;5.688;2023-01-23T16:32:52;4.30;99.90
42245;DHT22;27912;51.828;5.688;2023-01-23T16:35:19;4.30;99.90
42245;DHT22;27912;51.828;5.688;2023-01-23T16:37:47;4.30;99.90
42245;DHT22;27912;51.828;5.688;2023-01-23T16:40:18;4.30;99.90
42245;DHT22;27912;51.828;5.688;2023-01-23T16:42:45;4.30;99.90
42245;DHT22;27912;51.828;5.688;2023-01-23T16:45:24;4.30;99.90
42245;DHT22;27912;51.828;5.688;2023-01-23T16:47:50;4.30;99.90
42245;DHT22;27912;51.828;5.688;2023-01-23T16:50:19;4.30;99.90
42245;DHT22;27912;51.828;5.688;2023-01-23T16:52:53;4.30;99.90
42245;DHT22;27912;51.828;5.688;2023-01-23T16:55:22;4.30;99.90
42245;DHT22;27912;51.828;5.688;2023-01-23T16:57:49;4.40;99.90
42245;DHT22;27912;51.828;5.688;2023-01-23T17:00:22;4.40;99.90
42245;DHT22;27912;51.828;5.688;2023-01-23T17:02:53;4.40;99.90
42245;DHT22;27912;51.828;5.688;2023-01-23T17:05:20;4.50;99.90
42245;DHT22;27912;51.828;5.688;2023-01-23T17:07:49;4.50;99.90
42245;DHT22;27912;51.828;5.688;2023-01-23T17:10:19;4.50;99.90
42245;DHT22;27912;51.828;5.688;2023-01-23T17:12:47;4.50;99.90
42245;DHT22;27912;51.828;5.688;2023-01-23T17:15:28;4.50;99.90
42245;DHT22;27912;51.828;5.688;2023-01-23T17:17:59;4.50;99.90
42245;DHT22;27912;51.828;5.688;2023-01-23T17:20:26;4.60;99.90
42245;DHT22;27912;51.828;5.688;2023-01-23T17:22:53;4.50;99.90
42245;DHT22;27912;51.828;5.688;2023-01-23T17:25:24;4.60;99.90